createdAt,value
2017-12-20T00:01:48.132Z,3.30
2017-12-20T00:04:16.614Z,3.30
2017-12-20T00:06:45.124Z,3.30
2017-12-20T00:09:13.460Z,3.30
2017-12-20T00:11:41.795Z,3.30
2017-12-20T00:14:10.268Z,3.30
2017-12-20T00:16:39.693Z,3.30
2017-12-20T00:19:08.143Z,3.30
2017-12-20T00:21:36.500Z,3.30
2017-12-20T00:24:04.944Z,3.30
2017-12-20T00:26:33.251Z,3.30
2017-12-20T00:29:02.511Z,3.30
2017-12-20T00:31:31.506Z,3.30
2017-12-20T00:34:00.036Z,3.30
2017-12-20T00:36:30.426Z,3.30
2017-12-20T00:38:59.979Z,3.30
2017-12-20T00:41:28.482Z,3.30
2017-12-20T00:43:56.860Z,3.30
2017-12-20T00:46:25.285Z,3.30
2017-12-20T00:48:54.479Z,3.40
2017-12-20T00:51:22.809Z,3.40
2017-12-20T00:53:51.482Z,3.40
2017-12-20T00:56:20.940Z,3.30
2017-12-20T00:58:49.307Z,3.30
2017-12-20T01:01:17.699Z,3.30
2017-12-20T01:03:46.056Z,3.30
2017-12-20T01:06:14.406Z,3.30
2017-12-20T01:08:43.684Z,3.30
2017-12-20T01:11:12.035Z,3.30
2017-12-20T01:13:40.433Z,3.30
2017-12-20T01:16:08.968Z,3.30
2017-12-20T01:18:38.598Z,3.40
2017-12-20T01:21:07.045Z,3.30
2017-12-20T01:23:35.499Z,3.30
2017-12-20T01:26:03.872Z,3.30
2017-12-20T01:28:32.259Z,3.30
2017-12-20T01:31:00.967Z,3.30
2017-12-20T01:33:33.113Z,3.30
2017-12-20T01:36:02.373Z,3.30
2017-12-20T01:38:31.494Z,3.30
2017-12-20T01:41:00.840Z,3.30
2017-12-20T01:43:29.286Z,3.30
2017-12-20T01:45:57.684Z,3.30
2017-12-20T01:48:26.108Z,3.30
2017-12-20T01:50:54.424Z,3.30
2017-12-20T01:53:22.787Z,3.40
2017-12-20T01:55:51.907Z,3.40
2017-12-20T01:58:20.204Z,3.30
2017-12-20T02:00:48.549Z,3.30
2017-12-20T02:03:17.455Z,3.30
2017-12-20T02:05:45.770Z,3.40
2017-12-20T02:08:14.109Z,3.40
2017-12-20T02:10:46.109Z,3.40
2017-12-20T02:13:15.228Z,3.40
2017-12-20T02:15:43.551Z,3.40
2017-12-20T02:18:11.854Z,3.40
2017-12-20T02:20:40.203Z,3.40
2017-12-20T02:23:08.581Z,3.40
2017-12-20T02:25:37.669Z,3.40
2017-12-20T02:28:06.771Z,3.40
2017-12-20T02:30:35.128Z,3.40
2017-12-20T02:33:03.468Z,3.40
2017-12-20T02:35:32.568Z,3.50
2017-12-20T02:38:00.873Z,3.50
2017-12-20T02:40:29.195Z,3.50
2017-12-20T02:42:57.513Z,3.50
2017-12-20T02:45:26.576Z,3.50
2017-12-20T02:47:54.920Z,3.50
2017-12-20T02:50:23.977Z,3.50
2017-12-20T02:52:52.282Z,3.40
2017-12-20T02:55:20.621Z,3.50
2017-12-20T02:57:48.966Z,3.50
2017-12-20T03:00:18.193Z,3.50
2017-12-20T03:02:46.530Z,3.50
2017-12-20T03:05:14.848Z,3.50
2017-12-20T03:07:43.199Z,3.50
2017-12-20T03:10:11.526Z,3.50
2017-12-20T03:12:40.604Z,3.50
2017-12-20T03:15:09.738Z,3.50
2017-12-20T03:17:38.090Z,3.50
2017-12-20T03:20:06.386Z,3.50
2017-12-20T03:22:34.734Z,3.50
2017-12-20T03:25:03.050Z,3.50
2017-12-20T03:27:32.434Z,3.50
2017-12-20T03:30:00.784Z,3.50
2017-12-20T03:32:30.050Z,3.60
2017-12-20T03:34:58.349Z,3.50
2017-12-20T03:37:26.678Z,3.60
2017-12-20T03:39:55.767Z,3.60
2017-12-20T03:42:24.103Z,3.60
2017-12-20T03:44:52.436Z,3.60
2017-12-20T03:47:20.778Z,3.50
2017-12-20T03:49:49.885Z,3.50
2017-12-20T03:52:18.213Z,3.50
2017-12-20T03:54:47.277Z,3.50
2017-12-20T03:57:15.615Z,3.50
2017-12-20T03:59:43.913Z,3.50
2017-12-20T04:02:13.011Z,3.60
2017-12-20T04:04:41.314Z,3.60
2017-12-20T04:07:09.618Z,3.50
2017-12-20T04:09:37.957Z,3.50
2017-12-20T04:12:07.067Z,3.50
2017-12-20T04:14:35.373Z,3.50
2017-12-20T04:17:04.703Z,3.50
2017-12-20T04:19:33.347Z,3.50
2017-12-20T04:22:02.520Z,3.50
2017-12-20T04:24:31.629Z,3.60
2017-12-20T04:27:00.029Z,3.60
2017-12-20T04:29:29.088Z,3.60
2017-12-20T04:31:58.193Z,3.60
2017-12-20T04:34:26.525Z,3.60
2017-12-20T04:36:55.656Z,3.50
2017-12-20T04:39:24.034Z,3.50
2017-12-20T04:41:52.357Z,3.50
2017-12-20T04:44:20.709Z,3.50
2017-12-20T04:46:49.025Z,3.50
2017-12-20T04:49:17.767Z,3.50
2017-12-20T04:51:46.109Z,3.50
2017-12-20T04:54:14.453Z,3.50
2017-12-20T04:56:42.771Z,3.50
2017-12-20T04:59:11.133Z,3.50
2017-12-20T05:01:39.474Z,3.50
2017-12-20T05:04:08.549Z,3.50
2017-12-20T05:06:36.909Z,3.50
2017-12-20T05:09:06.053Z,3.50
2017-12-20T05:11:34.365Z,3.50
2017-12-20T05:14:02.715Z,3.50
2017-12-20T05:16:31.133Z,3.50
2017-12-20T05:19:00.251Z,3.50
2017-12-20T05:21:28.585Z,3.50
2017-12-20T05:23:56.886Z,3.50
2017-12-20T05:26:25.237Z,3.50
2017-12-20T05:28:53.600Z,3.50
2017-12-20T05:31:22.735Z,3.50
2017-12-20T05:33:51.333Z,3.50
2017-12-20T05:36:19.597Z,3.50
2017-12-20T05:38:48.664Z,3.50
2017-12-20T05:41:17.084Z,3.50
2017-12-20T05:43:45.464Z,3.50
2017-12-20T05:46:13.825Z,3.50
2017-12-20T05:48:42.223Z,3.60
2017-12-20T05:51:10.580Z,3.60
2017-12-20T05:53:38.876Z,3.60
2017-12-20T05:56:07.333Z,3.60
2017-12-20T05:58:35.654Z,3.60
2017-12-20T06:01:03.990Z,3.60
2017-12-20T06:03:32.284Z,3.60
2017-12-20T06:06:00.746Z,3.70
2017-12-20T06:08:29.107Z,3.60
2017-12-20T06:10:57.503Z,3.60
2017-12-20T06:13:25.876Z,3.60
2017-12-20T06:15:54.179Z,3.60
2017-12-20T06:18:22.480Z,3.60
2017-12-20T06:20:50.829Z,3.60
2017-12-20T06:23:19.161Z,3.50
2017-12-20T06:25:47.501Z,3.50
2017-12-20T06:28:15.857Z,3.60
2017-12-20T06:30:44.218Z,3.60
2017-12-20T06:33:12.521Z,3.50
2017-12-20T06:35:40.847Z,3.60
2017-12-20T06:38:09.182Z,3.60
2017-12-20T06:40:37.497Z,3.50
2017-12-20T06:43:05.812Z,3.50
2017-12-20T06:45:34.124Z,3.60
2017-12-20T06:48:03.232Z,3.60
2017-12-20T06:50:31.622Z,3.60
2017-12-20T06:52:59.953Z,3.60
2017-12-20T06:55:28.270Z,3.60
2017-12-20T06:57:57.334Z,3.60
2017-12-20T07:00:26.472Z,3.50
2017-12-20T07:02:54.773Z,3.50
2017-12-20T07:05:23.090Z,3.50
2017-12-20T07:07:52.438Z,3.60
2017-12-20T07:10:20.769Z,3.60
2017-12-20T07:12:49.062Z,3.60
2017-12-20T07:15:17.459Z,3.60
2017-12-20T07:17:45.768Z,3.60
2017-12-20T07:20:14.203Z,3.60
2017-12-20T07:22:42.519Z,3.60
2017-12-20T07:25:10.836Z,3.60
2017-12-20T07:27:39.200Z,3.60
2017-12-20T07:30:07.586Z,3.60
2017-12-20T07:32:35.905Z,3.60
2017-12-20T07:35:04.212Z,3.60
2017-12-20T07:37:32.548Z,3.70
2017-12-20T07:40:00.890Z,3.70
2017-12-20T07:42:29.232Z,3.70
2017-12-20T07:44:58.298Z,3.60
2017-12-20T07:47:26.605Z,3.60
2017-12-20T07:49:54.929Z,3.70
2017-12-20T07:52:23.229Z,3.70
2017-12-20T07:54:52.423Z,3.80
2017-12-20T07:57:22.161Z,3.80
2017-12-20T07:59:50.877Z,3.80
2017-12-20T08:02:20.289Z,3.70
2017-12-20T08:04:48.614Z,3.70
2017-12-20T08:07:16.977Z,3.80
2017-12-20T08:09:46.056Z,3.80
2017-12-20T08:12:15.176Z,3.80
2017-12-20T08:14:43.496Z,3.80
2017-12-20T08:17:12.671Z,3.80
2017-12-20T08:19:41.762Z,3.80
2017-12-20T08:22:10.065Z,3.80
2017-12-20T08:24:38.408Z,3.80
2017-12-20T08:27:06.726Z,3.90
2017-12-20T08:29:35.081Z,3.80
2017-12-20T08:32:03.380Z,3.90
2017-12-20T08:34:31.694Z,3.80
2017-12-20T08:37:00.024Z,3.80
2017-12-20T08:39:28.347Z,3.80
2017-12-20T08:41:56.689Z,3.80
2017-12-20T08:44:25.011Z,3.80
2017-12-20T08:46:53.400Z,3.90
2017-12-20T08:49:21.748Z,3.90
2017-12-20T08:51:50.056Z,3.90
2017-12-20T08:54:18.360Z,3.90
2017-12-20T08:56:46.748Z,3.90
2017-12-20T08:59:15.108Z,3.90
2017-12-20T09:01:43.484Z,3.90
2017-12-20T09:04:11.841Z,3.90
2017-12-20T09:06:40.196Z,4.00
2017-12-20T09:09:08.500Z,4.00
2017-12-20T09:11:36.817Z,4.00
2017-12-20T09:14:05.139Z,4.00
2017-12-20T09:16:55.608Z,4.00
2017-12-20T09:25:49.324Z,4.00
2017-12-20T09:28:18.245Z,4.00
2017-12-20T09:30:47.317Z,4.10
2017-12-20T09:33:15.654Z,4.00
2017-12-20T09:35:44.021Z,4.00
2017-12-20T09:38:12.336Z,4.10
2017-12-20T09:40:40.633Z,4.10
2017-12-20T09:43:08.977Z,4.10
2017-12-20T09:45:37.296Z,4.00
2017-12-20T09:48:06.434Z,4.00
2017-12-20T09:50:34.776Z,4.00
2017-12-20T09:53:03.099Z,4.10
2017-12-20T09:55:31.487Z,4.10
2017-12-20T09:57:59.756Z,4.10
2017-12-20T10:00:28.082Z,4.10
2017-12-20T10:02:56.406Z,4.10
2017-12-20T10:05:24.730Z,4.10
2017-12-20T10:07:53.856Z,4.10
2017-12-20T10:10:22.938Z,4.10
2017-12-20T10:12:51.272Z,4.10
2017-12-20T10:15:19.624Z,4.10
2017-12-20T10:17:47.936Z,4.20
2017-12-20T10:20:16.258Z,4.20
2017-12-20T10:22:44.580Z,4.20
2017-12-20T10:25:12.903Z,4.20
2017-12-20T10:27:42.009Z,4.20
2017-12-20T10:30:11.105Z,4.20
2017-12-20T10:32:39.424Z,4.20
2017-12-20T10:35:07.768Z,4.20
2017-12-20T10:37:36.081Z,4.20
2017-12-20T10:40:04.377Z,4.20
2017-12-20T10:42:32.689Z,4.20
2017-12-20T10:45:00.999Z,4.20
2017-12-20T10:47:29.354Z,4.10
2017-12-20T10:49:57.689Z,4.20
2017-12-20T10:52:26.001Z,4.20
2017-12-20T10:54:54.351Z,4.20
2017-12-20T10:57:23.458Z,4.10
2017-12-20T10:59:51.765Z,4.10
2017-12-20T11:02:20.089Z,4.10
2017-12-20T11:04:48.455Z,4.20
2017-12-20T11:07:16.753Z,4.10
2017-12-20T11:09:45.091Z,4.10
2017-12-20T11:12:13.412Z,4.20
2017-12-20T11:14:41.734Z,4.10
2017-12-20T11:17:10.074Z,4.00
2017-12-20T11:19:38.413Z,4.00
2017-12-20T11:22:06.786Z,4.00
2017-12-20T11:24:35.122Z,4.00
2017-12-20T11:27:04.193Z,4.00
2017-12-20T11:29:32.497Z,4.00
2017-12-20T11:32:01.669Z,4.00
2017-12-20T11:34:30.741Z,4.00
2017-12-20T11:36:59.093Z,4.00
2017-12-20T11:39:27.406Z,4.10
2017-12-20T11:41:55.722Z,4.00
2017-12-20T11:44:24.046Z,4.00
2017-12-20T11:46:52.372Z,4.00
2017-12-20T11:49:20.678Z,4.00
2017-12-20T11:51:49.756Z,4.10
2017-12-20T11:54:18.079Z,4.00
2017-12-20T11:56:46.367Z,4.20
2017-12-20T11:59:14.694Z,4.10
2017-12-20T12:01:43.108Z,4.10
2017-12-20T12:04:11.430Z,4.10
2017-12-20T12:06:40.534Z,4.10
2017-12-20T12:09:08.829Z,4.10
2017-12-20T12:11:37.151Z,4.10
2017-12-20T12:14:05.501Z,4.10
2017-12-20T12:16:33.817Z,4.20
2017-12-20T12:19:02.150Z,4.10
2017-12-20T12:21:30.499Z,4.10
2017-12-20T12:23:58.898Z,4.10
2017-12-20T12:26:27.198Z,4.10
2017-12-20T12:28:55.526Z,4.10
2017-12-20T12:31:23.859Z,4.10
2017-12-20T12:33:52.162Z,4.10
2017-12-20T12:36:20.491Z,4.10
2017-12-20T12:38:49.553Z,4.10
2017-12-20T12:41:17.927Z,4.10
2017-12-20T12:43:46.997Z,4.20
2017-12-20T12:46:15.308Z,4.20
2017-12-20T12:48:43.680Z,4.20
2017-12-20T12:51:12.041Z,4.20
2017-12-20T12:53:40.338Z,4.20
2017-12-20T12:56:09.281Z,4.20
2017-12-20T12:58:38.376Z,4.30
2017-12-20T13:01:06.679Z,4.30
2017-12-20T13:03:34.979Z,4.30
2017-12-20T13:06:03.296Z,4.30
2017-12-20T13:08:31.617Z,4.40
2017-12-20T13:11:00.717Z,4.30
2017-12-20T13:13:29.245Z,4.30
2017-12-20T13:15:58.353Z,4.30
2017-12-20T13:18:26.689Z,4.30
2017-12-20T13:20:55.798Z,4.30
2017-12-20T13:23:24.145Z,4.30
2017-12-20T13:25:52.456Z,4.30
2017-12-20T13:28:20.789Z,4.30
2017-12-20T13:30:49.114Z,4.30
2017-12-20T13:33:18.181Z,4.30
2017-12-20T13:35:46.513Z,4.30
2017-12-20T13:38:14.817Z,4.30
2017-12-20T13:40:43.129Z,4.40
2017-12-20T13:43:11.450Z,4.30
2017-12-20T13:45:39.778Z,4.30
2017-12-20T13:48:08.113Z,4.30
2017-12-20T13:50:36.417Z,4.30
2017-12-20T13:53:04.729Z,4.30
2017-12-20T13:55:33.065Z,4.30
2017-12-20T13:58:01.367Z,4.20
2017-12-20T14:00:30.470Z,4.30
2017-12-20T14:02:59.541Z,4.30
2017-12-20T14:05:27.877Z,4.30
2017-12-20T14:07:56.238Z,4.30
2017-12-20T14:10:24.578Z,4.40
2017-12-20T14:12:53.694Z,4.40
2017-12-20T14:15:22.042Z,4.40
2017-12-20T14:17:50.344Z,4.40
2017-12-20T14:20:19.430Z,4.30
2017-12-20T14:22:47.727Z,4.30
2017-12-20T14:25:16.062Z,4.40
2017-12-20T14:27:44.380Z,4.40
2017-12-20T14:30:13.479Z,4.30
2017-12-20T14:32:42.554Z,4.30
2017-12-20T14:35:10.875Z,4.30
2017-12-20T14:37:39.182Z,4.30
2017-12-20T14:40:07.525Z,4.30
2017-12-20T14:42:35.870Z,4.30
2017-12-20T14:45:04.181Z,4.30
2017-12-20T14:47:32.505Z,4.30
2017-12-20T14:50:00.819Z,4.30
2017-12-20T14:52:29.906Z,4.40
2017-12-20T14:54:58.248Z,4.30
2017-12-20T14:57:27.316Z,4.30
2017-12-20T14:59:55.646Z,4.30
2017-12-20T15:02:23.955Z,4.30
2017-12-20T15:04:52.280Z,4.30
2017-12-20T15:07:21.384Z,4.40
2017-12-20T15:09:49.714Z,4.30
2017-12-20T15:12:18.009Z,4.40
2017-12-20T15:14:46.330Z,4.30
2017-12-20T15:17:14.632Z,4.30
2017-12-20T15:19:43.000Z,4.30
2017-12-20T15:22:11.322Z,4.40
2017-12-20T15:24:39.617Z,4.40
2017-12-20T15:27:08.712Z,4.40
2017-12-20T15:29:37.062Z,4.40
2017-12-20T15:32:05.401Z,4.40
2017-12-20T15:34:33.743Z,4.40
2017-12-20T15:37:02.858Z,4.40
2017-12-20T15:39:31.151Z,4.30
2017-12-20T15:41:59.449Z,4.40
2017-12-20T15:44:28.561Z,4.30
2017-12-20T15:46:56.911Z,4.30
2017-12-20T15:49:25.239Z,4.30
2017-12-20T15:51:53.548Z,4.30
2017-12-20T15:54:21.877Z,4.30
2017-12-20T15:56:50.202Z,4.30
2017-12-20T15:59:18.538Z,4.30
2017-12-20T16:01:47.642Z,4.30
2017-12-20T16:04:16.722Z,4.30
2017-12-20T16:06:45.053Z,4.40
2017-12-20T16:09:13.381Z,4.30
2017-12-20T16:11:42.466Z,4.40
2017-12-20T16:14:10.822Z,4.40
2017-12-20T16:16:39.138Z,4.40
2017-12-20T16:19:07.467Z,4.40
2017-12-20T16:21:35.757Z,4.40
2017-12-20T16:24:04.092Z,4.40
2017-12-20T16:26:32.397Z,4.40
2017-12-20T16:29:01.483Z,4.40
2017-12-20T16:31:29.793Z,4.30
2017-12-20T16:33:58.115Z,4.40
2017-12-20T16:36:26.414Z,4.30
2017-12-20T16:38:55.534Z,4.30
2017-12-20T16:41:23.839Z,4.30
2017-12-20T16:43:52.178Z,4.40
2017-12-20T16:46:21.276Z,4.40
2017-12-20T16:48:49.596Z,4.30
2017-12-20T16:51:18.651Z,4.30
2017-12-20T16:53:46.959Z,4.40
2017-12-20T16:56:15.300Z,4.40
2017-12-20T16:58:43.596Z,4.30
2017-12-20T17:01:11.937Z,4.40
2017-12-20T17:03:40.237Z,4.30
2017-12-20T17:06:08.537Z,4.40
2017-12-20T17:08:36.860Z,4.40
2017-12-20T17:11:05.188Z,4.30
2017-12-20T17:13:33.520Z,4.40
2017-12-20T17:16:01.826Z,4.30
2017-12-20T17:18:30.962Z,4.40
2017-12-20T17:21:00.057Z,4.30
2017-12-20T17:23:28.363Z,4.30
2017-12-20T17:25:56.661Z,4.30
2017-12-20T17:28:25.014Z,4.40
2017-12-20T17:30:53.320Z,4.30
2017-12-20T17:33:21.654Z,4.30
2017-12-20T17:35:49.944Z,4.30
2017-12-20T17:38:18.255Z,4.30
2017-12-20T17:40:46.588Z,4.30
2017-12-20T17:43:14.913Z,4.30
2017-12-20T17:45:44.057Z,4.30
2017-12-20T17:48:12.359Z,4.20
2017-12-20T17:50:40.715Z,4.20
2017-12-20T17:53:09.018Z,4.30
2017-12-20T17:55:37.356Z,4.30
2017-12-20T17:58:06.452Z,4.30
2017-12-20T18:00:34.749Z,4.30
2017-12-20T18:03:03.073Z,4.40
2017-12-20T18:05:31.372Z,4.30
2017-12-20T18:07:59.682Z,4.30
2017-12-20T18:10:28.828Z,4.30
2017-12-20T18:12:57.129Z,4.30
2017-12-20T18:15:25.450Z,4.30
2017-12-20T18:17:53.765Z,4.30
2017-12-20T18:20:22.123Z,4.30
2017-12-20T18:22:51.190Z,4.20
2017-12-20T18:25:19.506Z,4.20
2017-12-20T18:27:47.857Z,4.30
2017-12-20T18:30:16.153Z,4.30
2017-12-20T18:32:44.490Z,4.20
2017-12-20T18:35:12.873Z,4.20
2017-12-20T18:37:41.281Z,4.20
2017-12-20T18:40:09.637Z,4.20
2017-12-20T18:42:37.966Z,4.20
2017-12-20T18:45:06.277Z,4.20
2017-12-20T18:47:34.607Z,4.20
2017-12-20T18:50:03.019Z,4.20
2017-12-20T18:52:31.363Z,4.20
2017-12-20T18:55:00.459Z,4.20
2017-12-20T18:57:28.788Z,4.20
2017-12-20T18:59:57.902Z,4.20
2017-12-20T19:02:26.237Z,4.20
2017-12-20T19:04:54.531Z,4.20
2017-12-20T19:07:22.832Z,4.30
2017-12-20T19:09:51.184Z,4.20
2017-12-20T19:12:19.527Z,4.30
2017-12-20T19:14:50.478Z,4.20
2017-12-20T19:17:18.830Z,4.30
2017-12-20T19:19:47.155Z,4.30
2017-12-20T19:22:15.508Z,4.30
2017-12-20T19:24:43.827Z,4.20
2017-12-20T19:27:12.145Z,4.20
2017-12-20T19:29:40.473Z,4.20
2017-12-20T19:32:08.811Z,4.20
2017-12-20T19:34:37.124Z,4.20
2017-12-20T19:37:05.420Z,4.20
2017-12-20T19:39:34.525Z,4.20
2017-12-20T19:42:03.615Z,4.20
2017-12-20T19:44:31.993Z,4.20
2017-12-20T19:47:00.300Z,4.20
2017-12-20T19:49:28.596Z,4.20
2017-12-20T19:51:56.926Z,4.20
2017-12-20T19:54:25.253Z,4.30
2017-12-20T19:56:54.361Z,4.20
2017-12-20T19:59:22.666Z,4.20
2017-12-20T20:01:51.792Z,4.20
2017-12-20T20:04:20.138Z,4.20
2017-12-20T20:06:48.599Z,4.20
2017-12-20T20:09:16.920Z,4.20
2017-12-20T20:11:45.242Z,4.20
2017-12-20T20:14:14.337Z,4.20
2017-12-20T20:16:42.645Z,4.20
2017-12-20T20:19:11.018Z,4.10
2017-12-20T20:21:39.317Z,4.20
2017-12-20T20:24:07.625Z,4.20
2017-12-20T20:26:35.954Z,4.20
2017-12-20T20:29:04.257Z,4.30
2017-12-20T20:31:32.612Z,4.30
2017-12-20T20:34:00.928Z,3.60
2017-12-20T20:36:29.245Z,4.20
2017-12-20T20:38:57.648Z,4.20
2017-12-20T20:41:26.700Z,4.20
2017-12-20T20:43:55.090Z,4.20
2017-12-20T20:46:23.380Z,4.20
2017-12-20T20:48:51.690Z,4.20
2017-12-20T20:51:20.160Z,4.20
2017-12-20T20:53:48.461Z,4.20
2017-12-20T20:56:16.825Z,4.30
2017-12-20T20:58:45.149Z,4.30
2017-12-20T21:01:14.254Z,4.30
2017-12-20T21:03:42.568Z,4.30
2017-12-20T21:06:10.905Z,4.20
2017-12-20T21:08:39.213Z,4.20
2017-12-20T21:11:07.549Z,4.20
2017-12-20T21:13:35.862Z,4.20
2017-12-20T21:16:04.216Z,4.30
2017-12-20T21:18:32.536Z,4.20
2017-12-20T21:21:00.935Z,4.20
2017-12-20T21:23:29.243Z,4.20
2017-12-20T21:25:57.585Z,4.20
2017-12-20T21:28:25.922Z,4.30
2017-12-20T21:30:54.223Z,4.30
2017-12-20T21:33:23.318Z,4.20
2017-12-20T21:35:51.614Z,4.20
2017-12-20T21:38:19.939Z,4.30
2017-12-20T21:40:49.046Z,4.30
2017-12-20T21:43:17.435Z,4.30
2017-12-20T21:45:45.712Z,4.30
2017-12-20T21:48:14.095Z,4.40
2017-12-20T21:50:42.464Z,4.40
2017-12-20T21:53:10.785Z,4.40
2017-12-20T21:55:39.136Z,4.40
2017-12-20T21:58:07.441Z,4.40
2017-12-20T22:00:35.742Z,4.40
2017-12-20T22:03:04.075Z,4.30
2017-12-20T22:05:32.382Z,4.30
2017-12-20T22:08:01.491Z,4.40
2017-12-20T22:10:29.790Z,4.40
2017-12-20T22:12:58.143Z,4.40
2017-12-20T22:15:26.495Z,4.40
2017-12-20T22:17:54.850Z,4.40
2017-12-20T22:20:23.178Z,4.40
2017-12-20T22:22:51.489Z,4.50
2017-12-20T22:25:19.818Z,4.50
2017-12-20T22:27:48.120Z,4.50
2017-12-20T22:30:17.226Z,4.50
2017-12-20T22:32:46.329Z,4.50
2017-12-20T22:35:14.676Z,4.50
2017-12-20T22:37:43.801Z,4.40
2017-12-20T22:40:12.168Z,4.40
2017-12-20T22:42:40.465Z,4.40
2017-12-20T22:45:09.466Z,4.40
2017-12-20T22:47:37.775Z,4.40
2017-12-20T22:50:06.900Z,4.40
2017-12-20T22:52:35.257Z,4.40
2017-12-20T22:55:03.558Z,4.40
2017-12-20T22:57:31.897Z,4.50
2017-12-20T23:00:00.259Z,4.40
2017-12-20T23:02:28.577Z,4.40
2017-12-20T23:04:56.878Z,4.40
2017-12-20T23:07:25.214Z,4.40
2017-12-20T23:09:53.548Z,4.40
2017-12-20T23:12:22.617Z,4.40
2017-12-20T23:14:50.942Z,4.40
2017-12-20T23:17:19.273Z,4.40
2017-12-20T23:19:48.373Z,4.40
2017-12-20T23:22:16.698Z,4.40
2017-12-20T23:24:45.008Z,4.50
2017-12-20T23:27:13.334Z,4.50
2017-12-20T23:29:41.640Z,4.50
2017-12-20T23:32:10.137Z,4.50
2017-12-20T23:34:38.490Z,4.40
2017-12-20T23:37:06.786Z,4.40
2017-12-20T23:39:35.157Z,4.40
2017-12-20T23:42:03.489Z,4.50
2017-12-20T23:44:31.838Z,4.40
2017-12-20T23:47:00.151Z,4.50
2017-12-20T23:49:28.475Z,4.40
2017-12-20T23:51:56.788Z,4.40
2017-12-20T23:54:25.117Z,4.40
2017-12-20T23:56:53.447Z,4.40
2017-12-20T23:59:21.886Z,4.40
